<?xml version="1.0" encoding="UTF-8" standalone="no" ?>
<gpx xmlns="http://www.topografix.com/GPX/1/1" xmlns:xsi="http://www.w3.org/2001/XMLSchema-instance" xsi:schemaLocation="http://www.topografix.com/GPX/1/1 http://www.topografix.com/GPX/1/1/gpx.xsd" version="1.1" creator="VisuGPX - https://www.visugpx.com">
  <metadata>
    <name>De Meillerie à Salvigny</name>
    <desc><![CDATA[Randonnée en Haute-Savoie]]></desc>
  </metadata>
  <trk>
    <name><![CDATA[ACTIVE LOG: 28 JUL 2015 15:17]]></name>
    <trkseg>
      <trkpt lat="46.16457" lon="6.79095">
        <ele>2205.88</ele>
        <time>2015-07-28T13:17:02Z</time>
      </trkpt>
      <trkpt lat="46.16453" lon="6.79088">
        <ele>2207.32</ele>
        <time>2015-07-28T13:18:07Z</time>
      </trkpt>
      <trkpt lat="46.16432" lon="6.79055">
        <ele>2217.42</ele>
        <time>2015-07-28T13:19:12Z</time>
      </trkpt>
      <trkpt lat="46.16387" lon="6.7902">
        <ele>2202.04</ele>
        <time>2015-07-28T13:20:17Z</time>
      </trkpt>
      <trkpt lat="46.16332" lon="6.78999">
        <ele>2191.46</ele>
        <time>2015-07-28T13:21:22Z</time>
      </trkpt>
      <trkpt lat="46.16291" lon="6.78949">
        <ele>2180.89</ele>
        <time>2015-07-28T13:22:27Z</time>
      </trkpt>
      <trkpt lat="46.16269" lon="6.78891">
        <ele>2164.06</ele>
        <time>2015-07-28T13:23:32Z</time>
      </trkpt>
      <trkpt lat="46.1625" lon="6.78849">
        <ele>2150.13</ele>
        <time>2015-07-28T13:24:37Z</time>
      </trkpt>
      <trkpt lat="46.16202" lon="6.78794">
        <ele>2136.19</ele>
        <time>2015-07-28T13:25:42Z</time>
      </trkpt>
      <trkpt lat="46.16173" lon="6.78737">
        <ele>2120.32</ele>
        <time>2015-07-28T13:26:47Z</time>
      </trkpt>
      <trkpt lat="46.16187" lon="6.78685">
        <ele>2106.87</ele>
        <time>2015-07-28T13:27:52Z</time>
      </trkpt>
      <trkpt lat="46.16221" lon="6.78662">
        <ele>2090.52</ele>
        <time>2015-07-28T13:28:57Z</time>
      </trkpt>
      <trkpt lat="46.1625" lon="6.78591">
        <ele>2078.51</ele>
        <time>2015-07-28T13:30:02Z</time>
      </trkpt>
      <trkpt lat="46.16236" lon="6.78564">
        <ele>2068.89</ele>
        <time>2015-07-28T13:31:07Z</time>
      </trkpt>
      <trkpt lat="46.16237" lon="6.78474">
        <ele>2048.71</ele>
        <time>2015-07-28T13:32:12Z</time>
      </trkpt>
      <trkpt lat="46.1621" lon="6.78403">
        <ele>2032.36</ele>
        <time>2015-07-28T13:33:17Z</time>
      </trkpt>
      <trkpt lat="46.16147" lon="6.78353">
        <ele>2020.35</ele>
        <time>2015-07-28T13:34:22Z</time>
      </trkpt>
      <trkpt lat="46.16086" lon="6.78372">
        <ele>2012.66</ele>
        <time>2015-07-28T13:35:27Z</time>
      </trkpt>
      <trkpt lat="46.16045" lon="6.78434">
        <ele>1993.43</ele>
        <time>2015-07-28T13:36:32Z</time>
      </trkpt>
      <trkpt lat="46.16011" lon="6.78511">
        <ele>1977.57</ele>
        <time>2015-07-28T13:37:37Z</time>
      </trkpt>
      <trkpt lat="46.15962" lon="6.78541">
        <ele>1960.75</ele>
        <time>2015-07-28T13:38:42Z</time>
      </trkpt>
      <trkpt lat="46.15948" lon="6.78453">
        <ele>1948.73</ele>
        <time>2015-07-28T13:39:47Z</time>
      </trkpt>
      <trkpt lat="46.15935" lon="6.78447">
        <ele>1942.96</ele>
        <time>2015-07-28T13:40:52Z</time>
      </trkpt>
      <trkpt lat="46.15935" lon="6.78439">
        <ele>1941.04</ele>
        <time>2015-07-28T13:41:57Z</time>
      </trkpt>
      <trkpt lat="46.15902" lon="6.78409">
        <ele>1926.62</ele>
        <time>2015-07-28T13:43:02Z</time>
      </trkpt>
      <trkpt lat="46.15852" lon="6.78463">
        <ele>1908.83</ele>
        <time>2015-07-28T13:44:07Z</time>
      </trkpt>
      <trkpt lat="46.15819" lon="6.78403">
        <ele>1891.05</ele>
        <time>2015-07-28T13:45:12Z</time>
      </trkpt>
      <trkpt lat="46.15799" lon="6.78378">
        <ele>1880.96</ele>
        <time>2015-07-28T13:46:17Z</time>
      </trkpt>
      <trkpt lat="46.15776" lon="6.7832">
        <ele>1869.42</ele>
        <time>2015-07-28T13:47:22Z</time>
      </trkpt>
      <trkpt lat="46.15806" lon="6.7824">
        <ele>1855</ele>
        <time>2015-07-28T13:48:27Z</time>
      </trkpt>
      <trkpt lat="46.15811" lon="6.78131">
        <ele>1841.06</ele>
        <time>2015-07-28T13:49:32Z</time>
      </trkpt>
      <trkpt lat="46.15811" lon="6.7804">
        <ele>1829.53</ele>
        <time>2015-07-28T13:50:37Z</time>
      </trkpt>
      <trkpt lat="46.15782" lon="6.77974">
        <ele>1815.11</ele>
        <time>2015-07-28T13:51:42Z</time>
      </trkpt>
      <trkpt lat="46.15794" lon="6.77878">
        <ele>1793.96</ele>
        <time>2015-07-28T13:52:47Z</time>
      </trkpt>
      <trkpt lat="46.15783" lon="6.77852">
        <ele>1789.15</ele>
        <time>2015-07-28T13:53:52Z</time>
      </trkpt>
      <trkpt lat="46.15769" lon="6.77807">
        <ele>1770.89</ele>
        <time>2015-07-28T13:54:57Z</time>
      </trkpt>
      <trkpt lat="46.15729" lon="6.77878">
        <ele>1753.1</ele>
        <time>2015-07-28T13:56:02Z</time>
      </trkpt>
      <trkpt lat="46.15673" lon="6.77924">
        <ele>1746.85</ele>
        <time>2015-07-28T13:57:07Z</time>
      </trkpt>
      <trkpt lat="46.15625" lon="6.77863">
        <ele>1733.39</ele>
        <time>2015-07-28T13:58:12Z</time>
      </trkpt>
      <trkpt lat="46.15571" lon="6.77817">
        <ele>1722.34</ele>
        <time>2015-07-28T13:59:17Z</time>
      </trkpt>
      <trkpt lat="46.15559" lon="6.77764">
        <ele>1718.49</ele>
        <time>2015-07-28T14:00:22Z</time>
      </trkpt>
      <trkpt lat="46.15521" lon="6.77726">
        <ele>1706</ele>
        <time>2015-07-28T14:01:27Z</time>
      </trkpt>
      <trkpt lat="46.15577" lon="6.77694">
        <ele>1691.58</ele>
        <time>2015-07-28T14:02:32Z</time>
      </trkpt>
      <trkpt lat="46.1556" lon="6.77643">
        <ele>1674.75</ele>
        <time>2015-07-28T14:03:37Z</time>
      </trkpt>
      <trkpt lat="46.15549" lon="6.77604">
        <ele>1661.3</ele>
        <time>2015-07-28T14:04:42Z</time>
      </trkpt>
      <trkpt lat="46.15563" lon="6.77552">
        <ele>1644.47</ele>
        <time>2015-07-28T14:05:47Z</time>
      </trkpt>
      <trkpt lat="46.15551" lon="6.77475">
        <ele>1626.21</ele>
        <time>2015-07-28T14:06:52Z</time>
      </trkpt>
      <trkpt lat="46.15567" lon="6.77466">
        <ele>1618.52</ele>
        <time>2015-07-28T14:07:57Z</time>
      </trkpt>
      <trkpt lat="46.15585" lon="6.77422">
        <ele>1601.69</ele>
        <time>2015-07-28T14:09:02Z</time>
      </trkpt>
      <trkpt lat="46.1554" lon="6.77383">
        <ele>1593.52</ele>
        <time>2015-07-28T14:10:07Z</time>
      </trkpt>
      <trkpt lat="46.15467" lon="6.77358">
        <ele>1584.87</ele>
        <time>2015-07-28T14:11:12Z</time>
      </trkpt>
      <trkpt lat="46.154" lon="6.77309">
        <ele>1574.3</ele>
        <time>2015-07-28T14:12:17Z</time>
      </trkpt>
      <trkpt lat="46.15348" lon="6.77235">
        <ele>1558.92</ele>
        <time>2015-07-28T14:13:22Z</time>
      </trkpt>
      <trkpt lat="46.15299" lon="6.77149">
        <ele>1548.34</ele>
        <time>2015-07-28T14:14:27Z</time>
      </trkpt>
      <trkpt lat="46.1525" lon="6.77071">
        <ele>1537.29</ele>
        <time>2015-07-28T14:15:32Z</time>
      </trkpt>
      <trkpt lat="46.15204" lon="6.76997">
        <ele>1525.27</ele>
        <time>2015-07-28T14:16:37Z</time>
      </trkpt>
      <trkpt lat="46.15156" lon="6.7704">
        <ele>1519.5</ele>
        <time>2015-07-28T14:17:42Z</time>
      </trkpt>
      <trkpt lat="46.15123" lon="6.77126">
        <ele>1518.54</ele>
        <time>2015-07-28T14:18:47Z</time>
      </trkpt>
      <trkpt lat="46.15118" lon="6.77138">
        <ele>1518.06</ele>
        <time>2015-07-28T14:18:58Z</time>
      </trkpt>
    </trkseg>
  </trk>
</gpx>